Conger, Iowa
Current Conditions -  °F | °C
As of 11:35 AM on Monday 24 Nov 2014 (Local Time) from KI75 Reporting Station
Overcast Overcast  
Wind Chill: 16°   Ceiling: 2300
Heat Index: 28°   Visibility: 10mi
Dew Point: 20°   Wind: 16mph
Humidity: 73%   Direction: 290°WNW
Pressure: 29.63"   Gusts: 24mph
Location:  41.2933°N, 93.7977°W
Report Text: KI75 241735Z AUTO 29014G21KT 10SM OVC023 M02/M06 A2963 RMK AO2 T10211064
Loading
Personal Weather Stations






























Interactive Weather Map New forecast layout! Learn more

10-Day Weather Forecast

Advertisements
Track Severe Weather on mobile